createdAt,value
2019-03-05T00:00:44.998Z,10.60
2019-03-05T00:03:14.267Z,10.50
2019-03-05T00:05:44.490Z,10.40
2019-03-05T00:08:13.560Z,10.40
2019-03-05T00:10:42.651Z,10.50
2019-03-05T00:13:12.012Z,10.60
2019-03-05T00:15:41.948Z,10.60
2019-03-05T00:18:11.227Z,10.60
2019-03-05T00:20:41.011Z,10.60
2019-03-05T00:23:10.193Z,10.60
2019-03-05T00:25:39.242Z,10.50
2019-03-05T00:28:36.127Z,10.60
2019-03-05T00:31:16.397Z,10.60
2019-03-05T00:34:28.793Z,10.50
2019-03-05T00:37:02.006Z,10.50
2019-03-05T00:39:58.221Z,10.50
2019-03-05T00:43:03.201Z,10.50
2019-03-05T00:45:59.104Z,10.60
2019-03-05T00:48:53.871Z,10.60
2019-03-05T00:51:37.937Z,10.60
2019-03-05T00:54:57.319Z,10.60
2019-03-05T00:58:13.498Z,10.60
2019-03-05T01:01:04.661Z,10.60
2019-03-05T01:04:15.402Z,10.50
2019-03-05T01:06:44.590Z,10.40
2019-03-05T01:09:17.551Z,10.40
2019-03-05T01:11:47.218Z,10.20
2019-03-05T01:14:16.445Z,10.10
2019-03-05T01:16:46.786Z,10.10
2019-03-05T01:19:15.894Z,10.00
2019-03-05T01:21:45.021Z,9.90
2019-03-05T01:24:14.286Z,9.80
2019-03-05T01:26:43.337Z,9.70
2019-03-05T01:29:12.608Z,9.50
2019-03-05T01:31:56.623Z,9.50
2019-03-05T01:34:44.804Z,9.40
2019-03-05T01:37:14.173Z,9.30
2019-03-05T01:40:01.380Z,9.30
2019-03-05T01:42:30.824Z,9.20
2019-03-05T01:45:00.247Z,9.10
2019-03-05T01:47:29.273Z,9.00
2019-03-05T01:49:58.316Z,8.90
2019-03-05T01:52:27.903Z,8.90
2019-03-05T01:54:57.038Z,8.80
2019-03-05T01:57:26.905Z,8.70
2019-03-05T01:59:56.338Z,8.70
2019-03-05T02:02:25.498Z,8.70
2019-03-05T02:04:55.087Z,8.60
2019-03-05T02:07:24.137Z,8.60
2019-03-05T02:09:53.265Z,8.60
2019-03-05T02:12:22.625Z,8.60
2019-03-05T02:14:52.000Z,8.60
2019-03-05T02:17:21.440Z,8.60
2019-03-05T02:19:50.999Z,8.60
2019-03-05T02:22:35.385Z,8.60
2019-03-05T02:25:31.087Z,8.60
2019-03-05T02:28:20.174Z,8.60
2019-03-05T02:31:23.997Z,8.60
2019-03-05T02:34:24.241Z,8.60
2019-03-05T02:37:33.260Z,8.50
2019-03-05T02:40:37.248Z,8.60
2019-03-05T02:43:28.484Z,8.70
2019-03-05T02:46:17.853Z,8.70
2019-03-05T02:49:21.438Z,8.70
2019-03-05T02:52:12.562Z,8.70
2019-03-05T02:55:01.165Z,8.80
2019-03-05T02:57:28.725Z,8.80
2019-03-05T02:59:58.052Z,8.80
2019-03-05T03:02:44.836Z,8.80
2019-03-05T03:05:31.926Z,8.80
2019-03-05T03:08:00.971Z,8.90
2019-03-05T03:10:30.436Z,9.00
2019-03-05T03:12:59.523Z,9.10
2019-03-05T03:15:28.579Z,9.20
2019-03-05T03:17:57.635Z,9.20
2019-03-05T03:20:26.711Z,9.30
2019-03-05T03:22:55.777Z,9.40
2019-03-05T03:25:25.142Z,9.40
2019-03-05T03:27:54.212Z,9.40
2019-03-05T03:30:24.479Z,9.40
2019-03-05T03:32:53.730Z,9.50
2019-03-05T03:35:22.865Z,9.50
2019-03-05T03:37:51.992Z,9.50
2019-03-05T03:40:24.946Z,9.60
2019-03-05T03:42:54.773Z,9.60
2019-03-05T03:45:25.274Z,9.60
2019-03-05T03:47:54.335Z,9.60
2019-03-05T03:50:23.454Z,9.70
2019-03-05T03:52:52.461Z,9.70
2019-03-05T03:55:22.303Z,9.70
2019-03-05T03:57:51.424Z,9.70
2019-03-05T04:00:22.408Z,9.80
2019-03-05T04:02:51.609Z,9.80
2019-03-05T04:05:21.029Z,9.80
2019-03-05T04:07:50.532Z,9.80
2019-03-05T04:10:19.655Z,9.80
2019-03-05T04:12:49.027Z,9.80
2019-03-05T04:15:19.722Z,9.90
2019-03-05T04:17:49.667Z,9.90
2019-03-05T04:20:36.547Z,9.90
2019-03-05T04:23:05.595Z,10.00
2019-03-05T04:25:34.702Z,10.00
2019-03-05T04:28:03.729Z,10.00
2019-03-05T04:30:33.068Z,10.00
2019-03-05T04:33:01.974Z,10.00
2019-03-05T04:35:31.023Z,10.00
2019-03-05T04:38:00.399Z,10.00
2019-03-05T04:40:29.409Z,9.90
2019-03-05T04:42:58.437Z,9.90
2019-03-05T04:45:49.664Z,9.80
2019-03-05T04:48:19.686Z,9.70
2019-03-05T04:51:03.921Z,9.80
2019-03-05T04:53:33.578Z,9.80
2019-03-05T04:56:02.631Z,9.80
2019-03-05T04:58:31.567Z,9.90
2019-03-05T05:01:00.542Z,9.90
2019-03-05T05:03:29.559Z,9.90
2019-03-05T05:05:58.853Z,9.90
2019-03-05T05:08:27.938Z,9.90
2019-03-05T05:10:57.429Z,10.00
2019-03-05T05:13:26.749Z,10.00
2019-03-05T05:15:55.963Z,10.10
2019-03-05T05:18:26.027Z,10.10
2019-03-05T05:20:55.974Z,10.10
2019-03-05T05:23:25.042Z,10.10
2019-03-05T05:25:54.247Z,10.10
2019-03-05T05:28:23.340Z,10.10
2019-03-05T05:30:52.375Z,10.00
2019-03-05T05:33:21.435Z,9.90
2019-03-05T05:35:50.458Z,9.90
2019-03-05T05:38:19.516Z,9.80
2019-03-05T05:40:48.610Z,9.80
2019-03-05T05:43:20.493Z,9.80
2019-03-05T05:45:50.786Z,9.80
2019-03-05T05:48:20.231Z,9.70
2019-03-05T05:50:49.604Z,9.80
2019-03-05T05:53:19.007Z,9.90
2019-03-05T05:55:48.103Z,9.80
2019-03-05T05:58:17.277Z,9.90
2019-03-05T06:00:52.137Z,9.90
2019-03-05T06:03:21.199Z,10.00
2019-03-05T06:05:50.513Z,10.00
2019-03-05T06:08:19.594Z,10.00
2019-03-05T06:10:48.757Z,10.00
2019-03-05T06:13:18.247Z,10.00
2019-03-05T06:15:47.774Z,10.00
2019-03-05T06:18:16.791Z,10.00
2019-03-05T06:20:45.773Z,10.10
2019-03-05T06:23:15.048Z,10.00
2019-03-05T06:25:44.124Z,9.90
2019-03-05T06:28:13.217Z,9.90
2019-03-05T06:30:42.388Z,9.90
2019-03-05T06:33:11.434Z,9.70
2019-03-05T06:35:40.487Z,9.60
2019-03-05T06:38:09.510Z,9.60
2019-03-05T06:40:38.549Z,9.50
2019-03-05T06:43:07.532Z,9.50
2019-03-05T06:45:36.867Z,9.50
2019-03-05T06:48:05.863Z,9.50
2019-03-05T06:50:34.889Z,9.50
2019-03-05T06:53:04.543Z,9.50
2019-03-05T06:55:33.519Z,9.50
2019-03-05T06:58:02.842Z,9.50
2019-03-05T07:00:33.577Z,9.60
2019-03-05T07:03:02.674Z,9.60
2019-03-05T07:06:07.775Z,9.60
2019-03-05T07:08:39.245Z,9.60
2019-03-05T07:11:46.271Z,9.60
2019-03-05T07:14:20.639Z,9.50
2019-03-05T07:16:59.563Z,9.50
2019-03-05T07:19:37.023Z,9.40
2019-03-05T07:22:30.514Z,9.30
2019-03-05T07:24:59.995Z,9.40
2019-03-05T07:27:40.196Z,9.40
2019-03-05T07:30:16.858Z,9.40
2019-03-05T07:32:45.897Z,9.40
2019-03-05T07:35:18.316Z,9.50
2019-03-05T07:37:47.447Z,9.50
2019-03-05T07:40:16.476Z,9.50
2019-03-05T07:42:45.553Z,9.60
2019-03-05T07:45:15.242Z,9.70
2019-03-05T07:47:44.368Z,9.80
2019-03-05T07:50:14.006Z,9.90
2019-03-05T07:52:43.709Z,9.90
2019-03-05T07:55:15.601Z,9.90
2019-03-05T07:57:45.985Z,10.00
2019-03-05T08:00:18.436Z,10.10
2019-03-05T08:02:48.070Z,10.20
2019-03-05T08:05:18.501Z,10.30
2019-03-05T08:07:48.210Z,10.30
2019-03-05T08:10:23.650Z,10.40
2019-03-05T08:13:30.048Z,10.50
2019-03-05T08:16:30.073Z,10.50
2019-03-05T08:18:59.700Z,10.50
2019-03-05T08:21:29.690Z,10.60
2019-03-05T08:23:59.451Z,10.70
2019-03-05T08:26:28.776Z,10.80
2019-03-05T08:28:58.159Z,10.90
2019-03-05T08:31:27.479Z,11.00
2019-03-05T08:33:58.112Z,11.00
2019-03-05T08:36:28.232Z,11.00
2019-03-05T08:39:00.339Z,11.00
2019-03-05T08:41:30.348Z,11.00
2019-03-05T08:44:00.333Z,11.00
2019-03-05T08:46:30.114Z,10.90
2019-03-05T08:48:59.678Z,10.80
2019-03-05T08:51:29.320Z,10.80
2019-03-05T08:53:59.152Z,10.70
2019-03-05T08:56:29.147Z,10.60
2019-03-05T08:58:58.686Z,10.60
2019-03-05T09:01:28.449Z,10.60
2019-03-05T09:03:58.295Z,10.60
2019-03-05T09:06:27.740Z,10.70
2019-03-05T09:09:00.307Z,10.80
2019-03-05T09:11:29.719Z,10.80
2019-03-05T09:13:59.837Z,10.80
2019-03-05T09:16:29.568Z,10.60
2019-03-05T09:18:59.415Z,10.50
2019-03-05T09:21:28.510Z,10.50
2019-03-05T09:23:57.876Z,10.50
2019-03-05T09:26:27.709Z,10.60
2019-03-05T09:28:57.490Z,10.70
2019-03-05T09:31:27.176Z,10.90
2019-03-05T09:33:57.207Z,11.10
2019-03-05T09:36:26.570Z,11.10
2019-03-05T09:38:56.006Z,11.30
2019-03-05T09:41:25.470Z,11.60
2019-03-05T09:43:54.799Z,11.80
2019-03-05T09:46:24.296Z,11.90
2019-03-05T09:48:54.472Z,12.00
2019-03-05T09:51:23.945Z,11.90
2019-03-05T09:53:53.241Z,11.80
2019-03-05T09:56:23.030Z,11.80
2019-03-05T09:58:52.568Z,11.60
2019-03-05T10:01:22.585Z,11.60
2019-03-05T10:03:52.597Z,11.60
2019-03-05T10:06:22.309Z,11.60
2019-03-05T10:08:51.748Z,11.50
2019-03-05T10:11:22.080Z,11.60
2019-03-05T10:13:51.283Z,11.40
2019-03-05T10:16:20.676Z,11.30
2019-03-05T10:18:50.399Z,11.20
2019-03-05T10:21:19.899Z,11.20
2019-03-05T10:23:49.925Z,11.30
2019-03-05T10:26:21.180Z,11.30
2019-03-05T10:28:50.650Z,11.50
2019-03-05T10:31:20.092Z,11.60
2019-03-05T10:33:49.600Z,11.50
2019-03-05T10:36:19.240Z,11.50
2019-03-05T10:38:56.801Z,11.60
2019-03-05T10:41:19.572Z,11.70
2019-03-05T10:43:48.972Z,11.80
2019-03-05T10:46:18.029Z,12.10
2019-03-05T10:48:46.912Z,12.20
2019-03-05T10:51:15.963Z,12.20
2019-03-05T10:53:45.358Z,12.30
2019-03-05T10:56:14.737Z,12.40
2019-03-05T10:58:43.854Z,12.50
2019-03-05T11:01:13.462Z,12.50
2019-03-05T11:03:42.506Z,12.50
2019-03-05T11:06:12.318Z,12.40
2019-03-05T11:08:41.978Z,12.60
2019-03-05T11:11:13.882Z,12.70
2019-03-05T11:13:41.867Z,12.70
2019-03-05T11:16:11.293Z,12.70
2019-03-05T11:18:40.658Z,12.90
2019-03-05T11:21:09.684Z,13.10
2019-03-05T11:23:39.019Z,13.20
2019-03-05T11:26:08.238Z,13.10
2019-03-05T11:28:37.521Z,13.00
2019-03-05T11:31:07.188Z,13.00
2019-03-05T11:33:36.521Z,13.00
2019-03-05T11:36:06.145Z,13.00
2019-03-05T11:38:35.674Z,13.30
2019-03-05T11:41:05.081Z,13.50
2019-03-05T11:43:34.120Z,13.70
2019-03-05T11:46:04.705Z,13.60
2019-03-05T11:48:34.135Z,13.50
2019-03-05T11:51:03.830Z,13.50
2019-03-05T11:53:32.874Z,13.60
2019-03-05T11:56:01.933Z,13.70
2019-03-05T11:58:31.609Z,13.90
2019-03-05T12:01:10.482Z,14.00
2019-03-05T12:03:39.556Z,14.20
2019-03-05T12:06:08.647Z,14.20
2019-03-05T12:08:38.031Z,14.30
2019-03-05T12:11:07.089Z,14.20
2019-03-05T12:13:36.578Z,14.20
2019-03-05T12:16:12.035Z,14.20
2019-03-05T12:18:41.406Z,14.30
2019-03-05T12:21:10.434Z,14.40
2019-03-05T12:23:39.528Z,14.40
2019-03-05T12:26:08.884Z,14.50
2019-03-05T12:28:38.311Z,14.50
2019-03-05T12:31:07.467Z,14.30
2019-03-05T12:33:36.609Z,14.20
2019-03-05T12:36:05.680Z,14.20
2019-03-05T12:38:34.738Z,14.10
2019-03-05T12:41:04.171Z,13.80
2019-03-05T12:43:33.403Z,13.60
2019-03-05T12:46:02.429Z,13.10
2019-03-05T12:48:39.524Z,13.10
2019-03-05T12:51:02.221Z,13.30
2019-03-05T12:53:31.276Z,13.60
2019-03-05T12:56:00.347Z,13.80
2019-03-05T12:58:29.594Z,13.60
2019-03-05T13:00:58.938Z,13.60
2019-03-05T13:03:28.327Z,13.60
2019-03-05T13:05:57.641Z,13.60
2019-03-05T13:08:28.611Z,13.60
2019-03-05T13:10:57.740Z,13.60
2019-03-05T13:13:26.840Z,13.70
2019-03-05T13:15:56.473Z,13.60
2019-03-05T13:18:30.835Z,13.50
2019-03-05T13:20:57.654Z,13.50
2019-03-05T13:23:26.989Z,13.70
2019-03-05T13:25:56.057Z,14.00
2019-03-05T13:28:25.034Z,14.20
2019-03-05T13:30:54.345Z,14.20
2019-03-05T13:33:23.368Z,14.20
2019-03-05T13:35:52.737Z,14.20
2019-03-05T13:38:21.880Z,14.20
2019-03-05T13:40:50.915Z,14.00
2019-03-05T13:43:21.770Z,13.80
2019-03-05T13:45:50.993Z,13.70
2019-03-05T13:48:58.871Z,13.80
2019-03-05T13:52:02.969Z,13.90
2019-03-05T13:55:23.528Z,13.70
2019-03-05T13:58:31.609Z,13.80
2019-03-05T14:01:01.088Z,14.00
2019-03-05T14:03:44.196Z,14.00
2019-03-05T14:06:57.487Z,14.10
2019-03-05T14:09:24.997Z,14.40
2019-03-05T14:11:54.354Z,14.90
2019-03-05T14:14:30.841Z,15.00
2019-03-05T14:17:22.504Z,14.90
2019-03-05T14:19:52.309Z,14.80
2019-03-05T14:22:21.974Z,14.60
2019-03-05T14:25:01.508Z,14.50
2019-03-05T14:27:21.958Z,14.30
2019-03-05T14:29:50.959Z,14.30
2019-03-05T14:32:20.382Z,14.30
2019-03-05T14:34:59.340Z,14.40
2019-03-05T14:37:30.326Z,14.50
2019-03-05T14:40:22.243Z,14.50
2019-03-05T14:42:30.986Z,14.40
2019-03-05T14:45:00.290Z,14.50
2019-03-05T14:47:29.375Z,14.60
2019-03-05T14:49:58.713Z,14.40
2019-03-05T14:52:27.986Z,14.40
2019-03-05T14:54:57.382Z,14.40
2019-03-05T14:57:27.071Z,14.20
2019-03-05T14:59:56.340Z,14.00
2019-03-05T15:02:25.500Z,13.70
2019-03-05T15:04:54.896Z,13.50
2019-03-05T15:07:24.091Z,13.50
2019-03-05T15:09:53.072Z,13.60
2019-03-05T15:12:22.631Z,13.60
2019-03-05T15:14:51.844Z,13.70
2019-03-05T15:17:21.079Z,13.60
2019-03-05T15:19:50.223Z,13.60
2019-03-05T15:22:19.441Z,13.60
2019-03-05T15:24:48.630Z,13.80
2019-03-05T15:27:18.102Z,13.80
2019-03-05T15:29:47.162Z,13.70
2019-03-05T15:32:16.596Z,13.50
2019-03-05T15:34:45.805Z,13.40
2019-03-05T15:37:14.926Z,13.40
2019-03-05T15:39:43.954Z,13.40
2019-03-05T15:42:13.149Z,13.40
2019-03-05T15:44:42.399Z,13.50
2019-03-05T15:47:11.820Z,13.40
2019-03-05T15:49:40.950Z,13.20
2019-03-05T15:52:10.040Z,13.20
2019-03-05T15:54:39.405Z,13.30
2019-03-05T15:57:08.477Z,13.20
2019-03-05T15:59:37.576Z,13.30
2019-03-05T16:02:06.699Z,13.30
2019-03-05T16:04:39.682Z,13.30
2019-03-05T16:07:10.931Z,13.20
2019-03-05T16:09:40.600Z,13.20
2019-03-05T16:12:10.794Z,13.20
2019-03-05T16:14:40.008Z,13.20
2019-03-05T16:17:09.127Z,13.10
2019-03-05T16:19:38.145Z,13.10
2019-03-05T16:22:07.288Z,13.10
2019-03-05T16:24:37.485Z,13.10
2019-03-05T16:27:06.985Z,13.00
2019-03-05T16:29:36.522Z,12.90
2019-03-05T16:32:23.121Z,12.80
2019-03-05T16:35:14.203Z,12.70
2019-03-05T16:38:05.174Z,12.60
2019-03-05T16:40:53.551Z,12.40
2019-03-05T16:43:33.037Z,12.40
2019-03-05T16:46:26.927Z,12.20
2019-03-05T16:49:21.119Z,12.20
2019-03-05T16:51:59.924Z,12.10
2019-03-05T16:54:54.228Z,12.10
2019-03-05T16:57:45.621Z,12.00
2019-03-05T17:00:49.371Z,12.00
2019-03-05T17:03:36.480Z,11.90
2019-03-05T17:06:26.307Z,11.90
2019-03-05T17:09:07.971Z,11.80
2019-03-05T17:11:47.894Z,11.80
2019-03-05T17:14:17.213Z,11.70
2019-03-05T17:16:46.196Z,11.70
2019-03-05T17:19:18.457Z,11.70
2019-03-05T17:21:47.803Z,11.70
2019-03-05T17:24:17.223Z,11.70
2019-03-05T17:26:46.298Z,11.60
2019-03-05T17:29:15.312Z,11.60
2019-03-05T17:31:44.744Z,11.50
2019-03-05T17:34:13.705Z,11.50
2019-03-05T17:36:42.779Z,11.50
2019-03-05T17:39:19.861Z,11.50
2019-03-05T17:41:49.057Z,11.40
2019-03-05T17:44:18.168Z,11.40
2019-03-05T17:46:47.486Z,11.40
2019-03-05T17:49:19.978Z,11.40
2019-03-05T17:51:49.013Z,11.40
2019-03-05T17:54:18.436Z,11.40
2019-03-05T17:56:47.541Z,11.30
2019-03-05T17:59:17.038Z,11.30
2019-03-05T18:01:46.517Z,11.30
2019-03-05T18:04:15.747Z,11.30
2019-03-05T18:06:45.039Z,11.30
2019-03-05T18:09:14.441Z,11.30
2019-03-05T18:11:43.403Z,11.30
2019-03-05T18:14:12.477Z,11.30
2019-03-05T18:16:41.966Z,11.30
2019-03-05T18:19:11.104Z,11.30
2019-03-05T18:21:41.081Z,11.30
2019-03-05T18:24:10.164Z,11.30
2019-03-05T18:26:39.155Z,11.20
2019-03-05T18:29:08.193Z,11.20
2019-03-05T18:31:37.235Z,11.20
2019-03-05T18:34:06.465Z,11.20
2019-03-05T18:36:35.786Z,11.20
2019-03-05T18:39:05.855Z,11.10
2019-03-05T18:41:34.926Z,11.10
2019-03-05T18:44:05.457Z,11.10
2019-03-05T18:46:34.512Z,11.10
2019-03-05T18:49:03.616Z,11.10
2019-03-05T18:51:32.624Z,11.10
2019-03-05T18:54:02.199Z,11.10
2019-03-05T18:56:31.894Z,11.10
2019-03-05T18:59:00.977Z,11.10
2019-03-05T19:01:30.368Z,11.10
2019-03-05T19:03:59.347Z,11.10
2019-03-05T19:06:28.420Z,11.10
2019-03-05T19:08:57.839Z,11.10
2019-03-05T19:11:27.496Z,11.10
2019-03-05T19:13:56.810Z,11.00
2019-03-05T19:16:25.882Z,11.00
2019-03-05T19:18:54.908Z,11.00
2019-03-05T19:21:24.615Z,11.00
2019-03-05T19:23:53.880Z,11.00
2019-03-05T19:26:22.899Z,11.00
2019-03-05T19:28:51.927Z,11.00
2019-03-05T19:31:20.859Z,11.00
2019-03-05T19:33:50.119Z,11.00
2019-03-05T19:36:19.481Z,11.00
2019-03-05T19:38:50.354Z,11.00
2019-03-05T19:41:19.151Z,10.90
2019-03-05T19:43:48.150Z,10.90
2019-03-05T19:46:17.444Z,10.80
2019-03-05T19:48:46.499Z,10.80
2019-03-05T19:51:15.833Z,10.70
2019-03-05T19:53:45.050Z,10.70
2019-03-05T19:56:14.079Z,10.60
2019-03-05T19:58:43.181Z,10.60
2019-03-05T20:01:18.100Z,10.50
2019-03-05T20:03:47.386Z,10.60
2019-03-05T20:06:17.480Z,10.50
2019-03-05T20:08:46.824Z,10.50
2019-03-05T20:11:16.259Z,10.50
2019-03-05T20:13:45.257Z,10.40
2019-03-05T20:16:16.439Z,10.40
2019-03-05T20:18:45.514Z,10.40
2019-03-05T20:21:16.195Z,10.40
2019-03-05T20:23:45.808Z,10.30
2019-03-05T20:26:14.920Z,10.30
2019-03-05T20:28:44.712Z,10.30
2019-03-05T20:31:14.039Z,10.40
2019-03-05T20:33:43.172Z,10.30
2019-03-05T20:36:12.359Z,10.30
2019-03-05T20:38:41.413Z,10.20
2019-03-05T20:41:11.017Z,10.20
2019-03-05T20:43:40.241Z,10.20
2019-03-05T20:46:13.106Z,10.20
2019-03-05T20:48:45.184Z,10.20
2019-03-05T20:51:15.103Z,10.20
2019-03-05T20:53:44.178Z,10.20
2019-03-05T20:56:13.738Z,10.10
2019-03-05T20:58:42.813Z,10.10
2019-03-05T21:01:12.005Z,10.10
2019-03-05T21:03:41.056Z,10.10
2019-03-05T21:06:10.388Z,10.00
2019-03-05T21:08:39.596Z,10.00
2019-03-05T21:11:10.545Z,10.00
2019-03-05T21:13:39.911Z,10.00
2019-03-05T21:16:09.529Z,10.00
2019-03-05T21:18:39.062Z,10.00
2019-03-05T21:21:08.271Z,10.00
2019-03-05T21:23:37.328Z,10.00
2019-03-05T21:26:06.698Z,10.00
2019-03-05T21:28:35.972Z,10.00
2019-03-05T21:31:05.607Z,10.00
2019-03-05T21:33:34.624Z,10.00
2019-03-05T21:36:03.819Z,10.00
2019-03-05T21:38:32.838Z,10.00
2019-03-05T21:41:02.475Z,10.00
2019-03-05T21:43:32.536Z,10.00
2019-03-05T21:46:04.392Z,9.90
2019-03-05T21:48:33.673Z,9.90
2019-03-05T21:51:02.697Z,9.90
2019-03-05T21:53:32.003Z,9.90
2019-03-05T21:56:01.377Z,9.90
2019-03-05T21:58:31.292Z,9.90
2019-03-05T22:01:00.496Z,9.90
2019-03-05T22:03:29.562Z,9.90
2019-03-05T22:05:59.008Z,10.00
2019-03-05T22:08:28.586Z,10.00
2019-03-05T22:10:58.694Z,10.10
2019-03-05T22:13:28.329Z,10.10
2019-03-05T22:15:57.971Z,10.20
2019-03-05T22:18:29.649Z,10.20
2019-03-05T22:20:58.934Z,10.20
2019-03-05T22:23:28.312Z,10.20
2019-03-05T22:25:57.213Z,10.30
2019-03-05T22:28:26.233Z,10.30
2019-03-05T22:30:55.441Z,10.40
2019-03-05T22:33:24.523Z,10.40
2019-03-05T22:35:53.782Z,10.40
2019-03-05T22:38:22.766Z,10.40
2019-03-05T22:40:52.127Z,10.50
2019-03-05T22:43:21.123Z,10.50
2019-03-05T22:45:50.164Z,10.50
2019-03-05T22:48:19.965Z,10.50
2019-03-05T22:50:49.307Z,10.50
2019-03-05T22:53:18.565Z,10.60
2019-03-05T22:55:47.530Z,10.60
2019-03-05T22:58:16.825Z,10.60
2019-03-05T23:01:10.248Z,10.60
2019-03-05T23:03:42.368Z,10.70
2019-03-05T23:06:11.795Z,10.70
2019-03-05T23:08:41.103Z,10.70
2019-03-05T23:11:10.133Z,10.70
2019-03-05T23:13:40.601Z,10.80
2019-03-05T23:16:10.786Z,10.80
2019-03-05T23:18:39.848Z,10.80
2019-03-05T23:21:09.454Z,10.80
2019-03-05T23:23:38.752Z,10.80
2019-03-05T23:26:08.164Z,10.80
2019-03-05T23:28:38.428Z,10.80
2019-03-05T23:31:09.361Z,10.80
2019-03-05T23:33:38.508Z,10.90
2019-03-05T23:36:08.054Z,10.90
2019-03-05T23:38:37.055Z,10.90
2019-03-05T23:41:06.070Z,10.90
2019-03-05T23:43:35.663Z,10.90
2019-03-05T23:46:05.023Z,10.90
2019-03-05T23:48:34.198Z,11.00
2019-03-05T23:51:03.215Z,11.00
2019-03-05T23:53:32.457Z,11.00
2019-03-05T23:56:01.445Z,11.00
2019-03-05T23:58:31.129Z,11.00
